Time;durP1;ratioP1;P1;durP2;ratioP2;P2;SDS_P1;SDS_P2;PMS_P1;PMS_P2;Temp;Humidity;BMP_temperature;BMP_pressure;BME280_temperature;BME280_humidity;BME280_pressure;Samples;Min_cycle;Max_cycle;Signal;HPM_P1;HPM_P2
2021/08/19 00:01:56;;;;;;;9.03;5.80;;;14.10;99.90;;;;;;6196707;28;20243;-74
2021/08/19 00:04:59;;;;;;;6.93;5.20;;;14.10;99.90;;;;;;6197247;28;20555;-75
2021/08/19 00:08:01;;;;;;;9.30;5.80;;;14.10;99.90;;;;;;6196865;28;20657;-74
2021/08/19 00:11:04;;;;;;;7.17;5.70;;;14.10;99.90;;;;;;6196411;28;20664;-74
2021/08/19 00:14:07;;;;;;;7.00;5.30;;;14.20;99.90;;;;;;6196857;28;20268;-74
2021/08/19 00:17:09;;;;;;;9.30;5.30;;;14.30;99.90;;;;;;6188377;28;20657;-74
2021/08/19 00:20:12;;;;;;;8.23;5.33;;;14.40;99.90;;;;;;6198272;28;20548;-74
2021/08/19 00:23:15;;;;;;;6.87;5.07;;;14.50;99.90;;;;;;6196689;28;20197;-74
2021/08/19 00:26:18;;;;;;;7.20;5.13;;;14.50;99.90;;;;;;6196123;28;20205;-73
2021/08/19 00:29:20;;;;;;;9.93;5.03;;;14.60;99.90;;;;;;6197740;28;20217;-74
2021/08/19 00:32:23;;;;;;;6.47;5.13;;;14.60;99.90;;;;;;6197370;28;20730;-74
2021/08/19 00:35:25;;;;;;;7.37;5.33;;;14.70;99.90;;;;;;6196495;28;20264;-74
2021/08/19 00:38:27;;;;;;;6.87;4.83;;;14.80;99.90;;;;;;6203194;28;20201;-74
2021/08/19 00:41:30;;;;;;;7.30;5.03;;;14.70;99.90;;;;;;6205406;28;20827;-74
2021/08/19 00:44:32;;;;;;;9.43;5.47;;;14.70;99.90;;;;;;6205867;28;20192;-74
2021/08/19 00:47:39;;;;;;;7.27;5.20;;;14.70;99.90;;;;;;6186214;28;20205;-76
2021/08/19 00:50:42;;;;;;;7.90;4.93;;;14.70;99.90;;;;;;6202305;28;20240;-74
2021/08/19 00:53:45;;;;;;;7.10;5.40;;;14.70;99.90;;;;;;6205296;28;20743;-74
2021/08/19 00:56:50;;;;;;;7.37;5.47;;;14.60;99.90;;;;;;6205616;28;20568;-74
2021/08/19 00:59:53;;;;;;;7.47;5.60;;;14.60;99.90;;;;;;6196461;28;20667;-73
2021/08/19 01:02:58;;;;;;;8.23;5.97;;;14.60;99.90;;;;;;6188567;28;20594;-73
2021/08/19 01:06:01;;;;;;;6.63;5.07;;;14.60;99.90;;;;;;6205935;28;20539;-74
2021/08/19 01:09:05;;;;;;;7.70;5.77;;;14.60;99.90;;;;;;6205382;28;20547;-75
2021/08/19 01:12:10;;;;;;;7.07;5.37;;;14.60;99.90;;;;;;6204113;28;20769;-75
2021/08/19 01:15:14;;;;;;;6.90;5.03;;;14.70;99.90;;;;;;6205124;28;20683;-75
2021/08/19 01:18:16;;;;;;;10.03;4.83;;;14.70;99.90;;;;;;6200129;28;20720;-73
2021/08/19 01:21:18;;;;;;;6.93;5.33;;;14.80;99.90;;;;;;6205278;28;20602;-74
2021/08/19 01:24:21;;;;;;;7.60;5.40;;;14.80;99.90;;;;;;6204890;28;20201;-76
2021/08/19 01:27:23;;;;;;;8.10;5.57;;;14.90;99.90;;;;;;6204015;28;20676;-74
2021/08/19 01:30:27;;;;;;;6.80;5.13;;;14.90;99.90;;;;;;6203670;28;20644;-74
2021/08/19 01:33:30;;;;;;;6.70;4.77;;;14.90;99.90;;;;;;6203865;28;20205;-74
2021/08/19 01:36:33;;;;;;;5.37;4.57;;;15.00;99.90;;;;;;6204219;28;20229;-73
2021/08/19 01:39:36;;;;;;;8.00;4.63;;;15.00;99.90;;;;;;6203536;28;20201;-74
2021/08/19 01:42:44;;;;;;;8.63;5.37;;;15.10;99.90;;;;;;6220053;28;20237;-74
2021/08/19 01:45:46;;;;;;;6.50;4.93;;;15.10;99.90;;;;;;6200332;28;20190;-74
2021/08/19 01:48:49;;;;;;;10.60;4.50;;;15.10;99.90;;;;;;6194941;28;20197;-74
2021/08/19 01:51:52;;;;;;;6.07;4.70;;;15.20;99.90;;;;;;6201221;28;20190;-74
2021/08/19 01:54:55;;;;;;;7.30;5.47;;;15.10;99.90;;;;;;6199419;28;20724;-73
2021/08/19 01:57:57;;;;;;;7.37;5.80;;;15.10;99.90;;;;;;6199854;28;20216;-74
2021/08/19 02:00:59;;;;;;;8.37;5.00;;;15.00;99.90;;;;;;6200868;28;20189;-74
2021/08/19 02:04:03;;;;;;;6.40;5.23;;;15.00;99.90;;;;;;6200975;28;20189;-74
2021/08/19 02:07:06;;;;;;;7.23;4.97;;;14.90;99.90;;;;;;6201038;28;20182;-74
2021/08/19 02:10:08;;;;;;;8.73;5.23;;;14.90;99.90;;;;;;6199278;28;20259;-74
2021/08/19 02:13:12;;;;;;;6.63;4.73;;;14.90;99.90;;;;;;6200528;28;20220;-74
2021/08/19 02:16:15;;;;;;;7.50;5.50;;;14.80;99.90;;;;;;6189857;28;20191;-74
2021/08/19 02:19:17;;;;;;;5.57;4.80;;;14.90;99.90;;;;;;6200658;28;20193;-75
2021/08/19 02:22:20;;;;;;;6.90;4.93;;;14.90;99.90;;;;;;6200357;28;20829;-74
2021/08/19 02:25:22;;;;;;;7.03;4.97;;;14.90;99.90;;;;;;6200418;28;20673;-76
2021/08/19 02:28:24;;;;;;;6.87;5.10;;;14.90;99.90;;;;;;6199123;28;20332;-74
2021/08/19 02:31:27;;;;;;;6.77;5.03;;;14.90;99.90;;;;;;6200028;28;20193;-75
2021/08/19 02:34:29;;;;;;;7.07;4.60;;;14.90;99.90;;;;;;6198950;28;20235;-74
2021/08/19 02:37:31;;;;;;;7.90;5.20;;;14.90;99.90;;;;;;6178147;28;20741;-76
2021/08/19 02:40:36;;;;;;;7.27;5.03;;;14.90;99.90;;;;;;6174875;28;20276;-74
2021/08/19 02:43:43;;;;;;;6.67;4.87;;;14.90;99.90;;;;;;6175901;28;20230;-74
2021/08/19 02:46:45;;;;;;;6.27;4.77;;;15.00;99.90;;;;;;6170883;28;20502;-76
2021/08/19 02:49:47;;;;;;;7.47;4.53;;;15.00;99.90;;;;;;6199809;28;20241;-74
2021/08/19 02:52:50;;;;;;;7.87;5.30;;;15.00;99.90;;;;;;6198168;28;20678;-74
2021/08/19 02:55:53;;;;;;;6.27;4.50;;;15.00;99.90;;;;;;6199803;28;20189;-75
2021/08/19 02:58:55;;;;;;;6.37;4.50;;;15.00;99.90;;;;;;6200331;28;20283;-75
2021/08/19 03:01:57;;;;;;;7.40;5.20;;;15.00;99.90;;;;;;6198899;28;20189;-75
2021/08/19 03:05:00;;;;;;;8.40;5.00;;;15.00;99.90;;;;;;6198286;28;20209;-74
2021/08/19 03:08:02;;;;;;;11.30;5.10;;;15.00;99.90;;;;;;6199106;28;20198;-75
2021/08/19 03:11:05;;;;;;;6.57;5.07;;;15.00;99.90;;;;;;6185462;28;20209;-74
2021/08/19 03:14:07;;;;;;;8.70;5.30;;;15.00;99.90;;;;;;6197046;28;20213;-74
2021/08/19 03:17:09;;;;;;;6.73;4.57;;;15.00;99.90;;;;;;6195773;28;20248;-74
2021/08/19 03:20:13;;;;;;;5.43;4.50;;;15.00;99.90;;;;;;6198071;28;20197;-74
2021/08/19 03:23:15;;;;;;;4.83;4.27;;;15.00;99.90;;;;;;6197456;28;20221;-74
2021/08/19 03:26:18;;;;;;;6.60;5.10;;;15.00;99.90;;;;;;6197939;28;20268;-75
2021/08/19 03:29:20;;;;;;;10.50;5.00;;;15.00;99.90;;;;;;6197728;28;20572;-76
2021/08/19 03:32:23;;;;;;;6.50;4.40;;;15.00;99.90;;;;;;6193531;28;20202;-74
2021/08/19 03:35:25;;;;;;;6.40;4.97;;;15.00;99.90;;;;;;6197472;28;20229;-74
2021/08/19 03:38:27;;;;;;;5.60;4.50;;;15.00;99.90;;;;;;6189192;28;20252;-74
2021/08/19 03:41:29;;;;;;;8.23;5.67;;;15.00;99.90;;;;;;6181155;28;20249;-74
2021/08/19 03:44:32;;;;;;;7.00;4.30;;;15.10;99.90;;;;;;6197070;28;20201;-75
2021/08/19 03:47:35;;;;;;;7.27;4.50;;;15.10;99.90;;;;;;6178724;28;20202;-76
2021/08/19 03:50:37;;;;;;;5.90;4.90;;;15.10;99.90;;;;;;6198739;28;20196;-74
2021/08/19 03:53:40;;;;;;;7.67;5.07;;;15.00;99.90;;;;;;6196870;28;20275;-74
2021/08/19 03:56:42;;;;;;;5.80;4.60;;;15.00;99.90;;;;;;6197181;28;20201;-74
2021/08/19 03:59:45;;;;;;;7.30;4.97;;;15.00;99.90;;;;;;6188735;28;20198;-74
2021/08/19 04:02:47;;;;;;;8.40;6.07;;;15.00;99.90;;;;;;6186500;28;20193;-75
2021/08/19 04:05:50;;;;;;;9.70;5.03;;;15.00;99.90;;;;;;6196446;28;20680;-74
2021/08/19 04:08:53;;;;;;;7.50;5.13;;;15.10;99.90;;;;;;6198501;28;20267;-74
2021/08/19 04:11:55;;;;;;;6.20;4.50;;;15.10;99.90;;;;;;6196112;28;20728;-75
2021/08/19 04:14:57;;;;;;;6.70;5.20;;;15.10;99.90;;;;;;6197697;28;20343;-74
2021/08/19 04:17:59;;;;;;;7.97;5.03;;;15.10;99.90;;;;;;6175640;28;20276;-74
2021/08/19 04:21:02;;;;;;;5.70;4.60;;;15.10;99.90;;;;;;6193681;28;20274;-75
2021/08/19 04:24:05;;;;;;;7.77;4.17;;;15.10;99.90;;;;;;6197781;28;20200;-74
2021/08/19 04:27:08;;;;;;;6.70;4.57;;;15.10;99.90;;;;;;6197276;28;20279;-75
2021/08/19 04:30:10;;;;;;;7.43;5.27;;;15.20;99.90;;;;;;6197076;28;20610;-74
2021/08/19 04:33:13;;;;;;;6.13;4.90;;;15.20;99.90;;;;;;6196023;28;20308;-74
2021/08/19 04:36:15;;;;;;;9.93;4.97;;;15.30;99.90;;;;;;6195607;28;20222;-74
2021/08/19 04:39:17;;;;;;;6.43;5.13;;;15.30;99.90;;;;;;6196253;28;20576;-75
2021/08/19 04:42:20;;;;;;;6.87;4.83;;;15.30;99.90;;;;;;6197297;28;20233;-75
2021/08/19 04:45:22;;;;;;;6.43;4.33;;;15.30;99.90;;;;;;6195672;28;20579;-74
2021/08/19 04:48:24;;;;;;;6.57;4.37;;;15.40;99.90;;;;;;6192064;28;20220;-74
2021/08/19 04:51:27;;;;;;;8.17;5.13;;;15.40;99.90;;;;;;6195628;28;20216;-74
2021/08/19 04:54:29;;;;;;;6.57;5.13;;;15.50;99.90;;;;;;6197280;28;20241;-75
2021/08/19 04:57:31;;;;;;;6.17;4.70;;;15.50;99.90;;;;;;6197242;28;20212;-75
2021/08/19 05:00:34;;;;;;;7.33;4.57;;;15.60;99.90;;;;;;6195945;28;20194;-76
2021/08/19 05:03:36;;;;;;;5.97;4.70;;;15.70;99.90;;;;;;6195755;28;20327;-75
2021/08/19 05:06:39;;;;;;;6.60;5.00;;;15.70;99.90;;;;;;6179642;28;20197;-74
2021/08/19 05:09:41;;;;;;;7.13;4.80;;;15.70;99.90;;;;;;6195923;28;20190;-74
2021/08/19 05:12:44;;;;;;;9.13;5.27;;;15.80;99.90;;;;;;6179339;28;20215;-74
2021/08/19 05:15:46;;;;;;;7.03;4.47;;;15.80;99.90;;;;;;6192397;28;20260;-76
2021/08/19 05:18:48;;;;;;;5.90;5.00;;;15.90;99.90;;;;;;6186515;28;20272;-74
2021/08/19 05:21:51;;;;;;;8.37;4.67;;;15.90;99.90;;;;;;6195376;28;20229;-75
2021/08/19 05:24:53;;;;;;;7.97;4.97;;;16.00;99.90;;;;;;6182578;28;20721;-74
2021/08/19 05:27:55;;;;;;;5.50;4.57;;;16.10;99.90;;;;;;6200910;28;20263;-74
2021/08/19 05:30:57;;;;;;;8.33;4.63;;;16.20;99.90;;;;;;6199974;28;20197;-75
2021/08/19 05:34:05;;;;;;;7.53;5.00;;;16.30;99.90;;;;;;6199811;28;20229;-76
2021/08/19 05:37:07;;;;;;;5.80;4.43;;;16.30;99.90;;;;;;6176761;28;20258;-76
2021/08/19 05:40:10;;;;;;;7.47;4.87;;;16.40;99.90;;;;;;6175733;28;20293;-75
2021/08/19 05:43:12;;;;;;;4.73;3.87;;;16.40;99.90;;;;;;6192821;28;20257;-74
2021/08/19 05:46:14;;;;;;;7.27;4.20;;;16.50;99.90;;;;;;6192646;28;20628;-76
2021/08/19 05:49:17;;;;;;;6.20;4.40;;;16.60;99.90;;;;;;6186697;28;20196;-75
2021/08/19 05:52:19;;;;;;;5.47;4.47;;;16.70;99.90;;;;;;6199271;28;20216;-75
2021/08/19 05:55:22;;;;;;;4.87;3.93;;;16.70;99.90;;;;;;6183450;28;20232;-75
2021/08/19 05:58:24;;;;;;;5.03;4.37;;;16.80;99.90;;;;;;6198939;28;20671;-75
2021/08/19 06:01:26;;;;;;;6.70;4.90;;;16.80;99.90;;;;;;6200527;28;20190;-74
2021/08/19 06:04:29;;;;;;;5.23;4.40;;;16.90;99.90;;;;;;6198879;28;20201;-75
2021/08/19 06:07:31;;;;;;;6.10;4.23;;;17.00;99.90;;;;;;6182894;28;20720;-75
2021/08/19 06:10:34;;;;;;;4.90;3.97;;;17.10;99.90;;;;;;6199130;28;20208;-75
2021/08/19 06:13:36;;;;;;;6.93;4.97;;;17.20;99.90;;;;;;6198529;28;20653;-74
2021/08/19 06:16:39;;;;;;;6.60;4.77;;;17.30;99.90;;;;;;6199700;28;20212;-76
2021/08/19 06:19:41;;;;;;;7.80;4.50;;;17.50;99.90;;;;;;6198726;28;20185;-75
2021/08/19 06:22:43;;;;;;;5.30;4.03;;;17.60;99.90;;;;;;6199056;28;20279;-75
2021/08/19 06:25:46;;;;;;;7.10;4.70;;;17.70;99.90;;;;;;6200175;28;20276;-77
2021/08/19 06:28:48;;;;;;;4.93;3.93;;;17.80;99.90;;;;;;6190565;28;20292;-76
2021/08/19 06:31:50;;;;;;;6.33;4.93;;;17.90;99.90;;;;;;6195238;28;20212;-75
2021/08/19 06:34:52;;;;;;;5.03;4.00;;;18.00;99.90;;;;;;6197468;28;20380;-75
2021/08/19 06:37:56;;;;;;;5.23;4.03;;;18.10;99.90;;;;;;6198365;28;20205;-74
2021/08/19 06:40:58;;;;;;;5.77;4.40;;;18.20;99.90;;;;;;6198360;28;20577;-75
2021/08/19 06:44:00;;;;;;;6.03;4.47;;;18.30;99.90;;;;;;6199437;28;20217;-75
2021/08/19 06:47:03;;;;;;;4.70;3.80;;;18.40;99.90;;;;;;6188150;28;20208;-75
2021/08/19 06:50:06;;;;;;;7.17;4.20;;;18.40;99.90;;;;;;6199572;28;20763;-75
2021/08/19 06:53:09;;;;;;;5.43;4.40;;;18.60;99.90;;;;;;6198258;28;20192;-75
2021/08/19 06:56:12;;;;;;;7.07;4.10;;;18.70;99.90;;;;;;6198982;28;20236;-75
2021/08/19 06:59:16;;;;;;;6.70;4.13;;;18.80;99.90;;;;;;6197789;28;20205;-75
2021/08/19 07:02:18;;;;;;;4.10;3.20;;;18.90;99.90;;;;;;6199620;28;20268;-75
2021/08/19 07:05:21;;;;;;;5.73;4.20;;;19.10;99.90;;;;;;6197497;28;20252;-76
2021/08/19 07:08:23;;;;;;;4.10;3.50;;;19.30;99.90;;;;;;6199107;28;20656;-76
2021/08/19 07:11:25;;;;;;;4.67;3.33;;;19.50;99.90;;;;;;6197480;28;20208;-75
2021/08/19 07:14:28;;;;;;;5.63;3.50;;;19.70;99.90;;;;;;6198799;28;20279;-76
2021/08/19 07:17:30;;;;;;;3.93;3.50;;;19.90;99.90;;;;;;6180455;28;20194;-76
2021/08/19 07:20:32;;;;;;;3.70;3.30;;;20.10;99.90;;;;;;6198718;28;20185;-75
2021/08/19 07:23:34;;;;;;;3.90;3.47;;;20.20;99.90;;;;;;6198841;28;20255;-75
2021/08/19 07:26:37;;;;;;;5.13;3.60;;;20.40;99.90;;;;;;6197014;28;20255;-75
2021/08/19 07:29:39;;;;;;;4.47;3.27;;;20.50;99.90;;;;;;6197128;28;20221;-74
2021/08/19 07:32:42;;;;;;;4.23;3.50;;;20.60;99.90;;;;;;6186605;28;20234;-75
2021/08/19 07:35:46;;;;;;;4.20;3.37;;;20.70;99.90;;;;;;6181217;28;20244;-76
2021/08/19 07:38:49;;;;;;;5.10;3.80;;;20.70;99.90;;;;;;6197046;28;20194;-75
2021/08/19 07:41:51;;;;;;;3.97;3.57;;;20.80;99.90;;;;;;6197910;28;20252;-75
2021/08/19 07:44:53;;;;;;;3.60;3.30;;;20.90;99.90;;;;;;6196990;28;20666;-75
2021/08/19 07:47:56;;;;;;;7.63;4.00;;;20.90;99.90;;;;;;6175078;28;20281;-75
2021/08/19 07:50:58;;;;;;;3.93;3.10;;;21.00;99.90;;;;;;6191934;28;20271;-75
2021/08/19 07:54:01;;;;;;;3.83;3.40;;;21.10;99.90;;;;;;6196684;28;20197;-75
2021/08/19 07:57:03;;;;;;;3.23;2.93;;;21.30;99.90;;;;;;6197454;28;20200;-75
2021/08/19 08:00:07;;;;;;;3.83;2.83;;;21.40;99.90;;;;;;6198127;28;20189;-75
2021/08/19 08:03:09;;;;;;;5.17;3.53;;;21.50;99.90;;;;;;6197267;28;20201;-75
2021/08/19 08:06:13;;;;;;;3.63;2.77;;;21.60;99.90;;;;;;6197953;28;20656;-75
2021/08/19 08:09:15;;;;;;;4.17;3.73;;;21.70;99.90;;;;;;6197888;28;20200;-75
2021/08/19 08:12:17;;;;;;;3.33;2.93;;;21.80;99.90;;;;;;6197267;28;20201;-76
2021/08/19 08:15:19;;;;;;;4.97;3.33;;;21.90;99.90;;;;;;6195462;28;20209;-76
2021/08/19 08:18:22;;;;;;;3.50;2.93;;;22.10;99.90;;;;;;6188761;28;20284;-76
2021/08/19 08:21:24;;;;;;;3.50;2.90;;;22.30;99.90;;;;;;6196277;28;20669;-76
2021/08/19 08:24:28;;;;;;;4.40;3.13;;;22.40;99.90;;;;;;6196194;28;20340;-75
2021/08/19 08:27:30;;;;;;;3.90;3.27;;;22.60;99.90;;;;;;6195772;28;20716;-76
2021/08/19 08:30:33;;;;;;;4.70;3.63;;;22.60;99.90;;;;;;6196195;28;20185;-76
2021/08/19 08:33:35;;;;;;;5.43;3.10;;;22.70;99.30;;;;;;6196946;28;20268;-76
2021/08/19 08:36:38;;;;;;;4.13;3.30;;;22.80;99.70;;;;;;6196015;28;20229;-76
2021/08/19 08:39:40;;;;;;;4.30;3.07;;;23.10;98.80;;;;;;6195624;28;20296;-75
2021/08/19 08:42:45;;;;;;;4.23;2.57;;;23.40;96.20;;;;;;6195746;28;20226;-76
2021/08/19 08:45:49;;;;;;;3.67;3.13;;;23.90;96.60;;;;;;6192849;28;20674;-76
2021/08/19 08:48:55;;;;;;;3.90;2.50;;;24.10;97.10;;;;;;6187003;28;20300;-76
2021/08/19 08:51:58;;;;;;;3.13;2.87;;;24.10;96.40;;;;;;6196005;28;20201;-76
2021/08/19 08:55:03;;;;;;;3.37;2.63;;;24.20;96.50;;;;;;6195287;28;20252;-77
2021/08/19 08:58:07;;;;;;;3.17;2.73;;;24.30;96.40;;;;;;6196455;28;20213;-76
2021/08/19 09:01:10;;;;;;;2.60;2.30;;;24.40;95.90;;;;;;6200675;28;20473;-76
2021/08/19 09:04:12;;;;;;;3.13;2.43;;;24.50;95.50;;;;;;6200487;28;20201;-76
2021/08/19 09:07:15;;;;;;;3.43;2.43;;;24.70;95.40;;;;;;6200553;28;20197;-76
2021/08/19 09:10:22;;;;;;;2.73;2.40;;;24.80;94.60;;;;;;6200098;28;20279;-76
2021/08/19 09:13:29;;;;;;;3.57;2.90;;;24.90;94.40;;;;;;6184211;28;20198;-76
2021/08/19 09:16:39;;;;;;;4.43;2.80;;;25.10;93.70;;;;;;6205955;28;20293;-77
2021/08/19 09:19:42;;;;;;;3.93;2.57;;;25.20;93.10;;;;;;6190467;28;20233;-76
2021/08/19 09:22:54;;;;;;;2.40;2.13;;;25.40;90.10;;;;;;6200426;28;20222;-76
2021/08/19 09:25:59;;;;;;;2.92;2.40;;;25.80;90.20;;;;;;6200925;28;20217;-76
2021/08/19 09:29:16;;;;;;;3.13;2.20;;;26.50;88.30;;;;;;6200157;28;20340;-77
2021/08/19 09:32:19;;;;;;;2.65;2.10;;;27.00;84.70;;;;;;6199600;28;20194;-76
2021/08/19 09:35:22;;;;;;;3.05;2.40;;;27.40;78.50;;;;;;6199793;28;20218;-77
2021/08/19 09:38:41;;;;;;;3.22;2.20;;;27.30;75.70;;;;;;6199830;28;20588;-76
2021/08/19 09:41:54;;;;;;;3.38;2.22;;;27.30;78.10;;;;;;6199136;28;20588;-77
2021/08/19 09:44:56;;;;;;;1.90;1.70;;;27.60;79.90;;;;;;6201076;28;20290;-77
2021/08/19 09:48:10;;;;;;;2.30;1.88;;;28.00;79.00;;;;;;6199950;28;20193;-76
2021/08/19 09:51:17;;;;;;;2.35;2.15;;;28.20;76.30;;;;;;6201025;28;20224;-77
2021/08/19 09:54:31;;;;;;;2.35;2.15;;;28.10;77.70;;;;;;6199113;28;20200;-76
2021/08/19 09:57:33;;;;;;;2.35;2.10;;;28.10;79.00;;;;;;6183471;28;20244;-77
2021/08/19 10:00:41;;;;;;;2.47;2.00;;;27.90;78.50;;;;;;6199420;28;20194;-77
2021/08/19 10:03:44;;;;;;;1.95;1.73;;;27.60;78.70;;;;;;6200175;28;20190;-76
2021/08/19 10:06:47;;;;;;;2.50;2.30;;;27.50;79.60;;;;;;6200526;28;20189;-78
2021/08/19 10:09:50;;;;;;;2.17;1.98;;;27.40;78.90;;;;;;6198832;28;20309;-77
2021/08/19 10:12:54;;;;;;;2.95;2.30;;;27.30;79.00;;;;;;6200571;28;20276;-76
2021/08/19 10:15:59;;;;;;;2.08;1.83;;;27.10;80.10;;;;;;6193873;28;20222;-76
2021/08/19 10:19:08;;;;;;;2.90;1.85;;;26.60;79.80;;;;;;6194457;28;20240;-76
2021/08/19 10:22:15;;;;;;;1.73;1.63;;;26.40;81.60;;;;;;6200138;28;20725;-77
2021/08/19 10:25:19;;;;;;;2.30;1.60;;;26.80;80.80;;;;;;6198501;28;20288;-77
2021/08/19 10:28:22;;;;;;;3.10;1.90;;;27.40;78.60;;;;;;6198739;28;20205;-77
2021/08/19 10:31:38;;;;;;;1.98;1.75;;;28.10;76.60;;;;;;6199417;28;20284;-76
2021/08/19 10:35:10;;;;;;;2.75;2.20;;;28.30;74.40;;;;;;6198536;28;20480;-77
2021/08/19 10:38:24;;;;;;;3.13;2.42;;;28.00;73.10;;;;;;6197988;28;20205;-77
2021/08/19 10:41:44;;;;;;;2.65;2.35;;;27.60;76.00;;;;;;6198346;28;20748;-77
2021/08/19 10:45:28;;;;;;;2.50;2.30;;;27.20;77.50;;;;;;6198617;28;20205;-77
2021/08/19 10:48:48;;;;;;;2.25;1.90;;;27.00;78.80;;;;;;6214513;28;20673;-77
2021/08/19 10:51:51;;;;;;;2.53;1.80;;;27.10;79.70;;;;;;6198237;28;20675;-77
2021/08/19 10:55:11;;;;;;;2.47;2.28;;;27.40;79.10;;;;;;6197987;28;20291;-77
2021/08/19 10:58:34;;;;;;;2.20;2.00;;;28.00;75.20;;;;;;6198018;28;20197;-77
2021/08/19 11:01:51;;;;;;;2.50;2.30;;;28.40;72.00;;;;;;6181538;28;20198;-77
2021/08/19 11:04:56;;;;;;;2.47;2.28;;;28.80;70.70;;;;;;6199497;28;20253;-77
2021/08/19 11:08:01;;;;;;;2.35;2.15;;;28.90;71.80;;;;;;6198579;28;20201;-77
2021/08/19 11:11:04;;;;;;;2.90;2.10;;;28.80;72.50;;;;;;6197978;28;20186;-77
2021/08/19 11:14:10;;;;;;;3.38;2.00;;;28.50;72.30;;;;;;6198976;28;20217;-76
2021/08/19 11:17:15;;;;;;;3.22;1.98;;;28.30;73.40;;;;;;6181177;28;20221;-77
2021/08/19 11:20:28;;;;;;;2.33;1.83;;;28.20;74.20;;;;;;6186126;28;20677;-76
2021/08/19 11:23:36;;;;;;;1.65;1.55;;;28.10;73.50;;;;;;6172750;28;20678;-77
2021/08/19 11:26:39;;;;;;;1.60;1.50;;;28.60;72.90;;;;;;6174932;28;20190;-77
2021/08/19 11:29:43;;;;;;;1.23;1.13;;;29.30;65.50;;;;;;6173907;28;20201;-77
2021/08/19 11:33:26;;;;;;;0.95;0.95;;;29.40;64.40;;;;;;6198810;28;20185;-77
2021/08/19 11:36:30;;;;;;;2.17;1.00;;;28.80;57.90;;;;;;6196999;28;20237;-77
2021/08/19 11:39:32;;;;;;;1.60;0.93;;;28.50;58.90;;;;;;6196582;28;20186;-77
2021/08/19 11:42:35;;;;;;;1.52;1.10;;;28.10;62.00;;;;;;6197036;28;20217;-77
2021/08/19 11:45:37;;;;;;;1.55;1.35;;;28.00;62.60;;;;;;6193362;28;20202;-77
2021/08/19 11:48:57;;;;;;;2.63;1.73;;;28.10;59.70;;;;;;6190883;28;20218;-77
2021/08/19 11:52:02;;;;;;;1.77;1.65;;;28.60;58.00;;;;;;6198046;28;20669;-77
2021/08/19 11:55:05;;;;;;;2.33;1.60;;;28.90;58.70;;;;;;6198188;28;20201;-76
2021/08/19 11:58:14;;;;;;;1.80;1.50;;;28.80;57.20;;;;;;6196740;28;20201;-77
2021/08/19 12:01:17;;;;;;;1.95;1.50;;;28.50;57.30;;;;;;6197575;28;20271;-76
2021/08/19 12:04:34;;;;;;;2.08;1.63;;;28.10;60.20;;;;;;6196535;28;20193;-77
2021/08/19 12:07:40;;;;;;;1.73;1.50;;;27.70;64.10;;;;;;6197455;28;20200;-76
2021/08/19 12:10:42;;;;;;;1.52;1.42;;;27.40;62.80;;;;;;6196620;28;20178;-76
2021/08/19 12:13:45;;;;;;;2.25;1.70;;;27.10;64.30;;;;;;6196600;28;20680;-77
2021/08/19 12:16:50;;;;;;;1.63;1.52;;;26.80;66.90;;;;;;6184632;28;20260;-76
2021/08/19 12:20:16;;;;;;;1.50;1.40;;;26.50;69.00;;;;;;6191901;28;20205;-76
2021/08/19 12:23:26;;;;;;;1.65;1.38;;;26.50;70.90;;;;;;6196004;28;20194;-76
2021/08/19 12:26:28;;;;;;;2.65;1.50;;;26.60;71.10;;;;;;6196488;28;20684;-76
2021/08/19 12:29:53;;;;;;;2.22;1.45;;;26.90;70.30;;;;;;6195584;28;20316;-77
2021/08/19 12:33:02;;;;;;;1.67;1.58;;;27.10;69.20;;;;;;6186455;28;20232;-76
2021/08/19 12:36:19;;;;;;;2.30;1.83;;;27.50;69.10;;;;;;6196037;28;20739;-77
2021/08/19 12:39:27;;;;;;;3.08;2.10;;;27.70;66.30;;;;;;6179746;28;20275;-76
2021/08/19 12:42:33;;;;;;;2.10;1.90;;;27.80;65.90;;;;;;6195968;28;20229;-76
2021/08/19 12:45:38;;;;;;;2.38;2.10;;;28.20;64.20;;;;;;6193852;28;20195;-77
2021/08/19 12:48:41;;;;;;;2.92;2.28;;;28.50;62.90;;;;;;6157923;28;20455;-77
2021/08/19 12:51:44;;;;;;;2.33;2.13;;;28.40;62.90;;;;;;6196703;28;20287;-76
2021/08/19 12:54:59;;;;;;;2.20;2.00;;;28.40;63.70;;;;;;6195967;28;20708;-77
2021/08/19 12:58:03;;;;;;;3.03;1.88;;;28.80;63.30;;;;;;6195636;28;20312;-77
2021/08/19 13:01:05;;;;;;;2.13;1.90;;;29.50;60.50;;;;;;6195393;28;20324;-77
2021/08/19 13:04:07;;;;;;;3.72;2.42;;;30.20;56.60;;;;;;6197168;28;20767;-77
2021/08/19 13:07:13;;;;;;;2.10;2.00;;;30.40;56.80;;;;;;6187396;28;20197;-77
2021/08/19 13:10:18;;;;;;;2.58;2.13;;;30.70;55.90;;;;;;6165566;28;20200;-77
2021/08/19 13:13:23;;;;;;;2.85;2.38;;;31.00;55.20;;;;;;6195586;28;20194;-77
2021/08/19 13:16:25;;;;;;;2.60;2.20;;;31.10;54.60;;;;;;6196404;28;20237;-77
2021/08/19 13:19:27;;;;;;;2.33;2.10;;;31.00;53.50;;;;;;6196894;28;20553;-78
2021/08/19 13:22:30;;;;;;;2.40;2.17;;;31.10;54.00;;;;;;6179464;28;20328;-77
2021/08/19 13:25:32;;;;;;;2.40;2.20;;;31.50;54.00;;;;;;6173985;28;20697;-77
2021/08/19 13:28:43;;;;;;;2.47;2.15;;;31.40;54.20;;;;;;6172316;28;20194;-77
2021/08/19 13:31:45;;;;;;;2.55;2.33;;;31.60;55.10;;;;;;6188623;28;20201;-77
2021/08/19 13:35:09;;;;;;;2.45;2.25;;;32.10;52.80;;;;;;6195342;28;20233;-77
2021/08/19 13:38:12;;;;;;;2.63;2.42;;;32.70;52.10;;;;;;6196351;28;20225;-77
2021/08/19 13:41:14;;;;;;;3.05;2.47;;;33.30;50.20;;;;;;6195664;28;20253;-77
2021/08/19 13:44:16;;;;;;;3.38;2.20;;;33.80;48.70;;;;;;6179797;28;20197;-78
2021/08/19 13:47:20;;;;;;;3.13;2.40;;;34.00;47.40;;;;;;6189588;28;20193;-77
2021/08/19 13:50:22;;;;;;;2.60;2.40;;;34.10;47.40;;;;;;6199741;28;20299;-79
2021/08/19 13:53:24;;;;;;;2.45;2.20;;;33.90;47.80;;;;;;6199669;28;20201;-77
2021/08/19 13:56:27;;;;;;;2.25;2.05;;;33.20;49.40;;;;;;6183948;28;20213;-78
2021/08/19 13:59:32;;;;;;;4.05;2.50;;;32.90;51.10;;;;;;6199680;28;20305;-77
2021/08/19 14:02:34;;;;;;;3.55;2.40;;;32.60;49.70;;;;;;6199589;28;20796;-77
2021/08/19 14:05:37;;;;;;;2.13;1.92;;;31.80;50.80;;;;;;6199081;28;20282;-78
2021/08/19 14:08:39;;;;;;;2.47;2.28;;;31.50;51.10;;;;;;6199515;28;20622;-77
2021/08/19 14:11:42;;;;;;;2.60;2.40;;;31.90;51.30;;;;;;6199263;28;20693;-77
2021/08/19 14:14:44;;;;;;;2.88;2.45;;;32.60;50.00;;;;;;6189681;28;20186;-77
2021/08/19 14:17:47;;;;;;;3.17;2.63;;;33.70;48.50;;;;;;6199227;28;20741;-77
2021/08/19 14:20:49;;;;;;;3.22;2.42;;;34.60;47.60;;;;;;6200122;28;20193;-77
2021/08/19 14:23:51;;;;;;;4.15;2.50;;;35.00;45.60;;;;;;6199105;28;20185;-77
2021/08/19 14:26:54;;;;;;;2.55;2.35;;;35.40;44.70;;;;;;6200295;28;20204;-77
2021/08/19 14:29:57;;;;;;;3.75;2.40;;;35.40;42.70;;;;;;6198224;28;20295;-77
2021/08/19 14:32:59;;;;;;;3.95;2.55;;;35.80;44.90;;;;;;6188329;28;20194;-77
2021/08/19 14:36:03;;;;;;;2.30;2.10;;;36.10;43.20;;;;;;6181176;28;20225;-77
2021/08/19 14:39:06;;;;;;;2.85;2.40;;;36.40;42.70;;;;;;6198548;28;20280;-78
2021/08/19 14:42:08;;;;;;;3.40;2.40;;;36.70;42.50;;;;;;6198351;28;20844;-78
2021/08/19 14:45:11;;;;;;;2.63;2.30;;;37.10;41.70;;;;;;6198683;28;20188;-78
2021/08/19 14:48:15;;;;;;;3.22;2.15;;;37.40;41.20;;;;;;6199531;28;20229;-77
2021/08/19 14:51:17;;;;;;;3.42;2.63;;;37.60;40.60;;;;;;6199169;28;20335;-77
2021/08/19 14:54:20;;;;;;;2.22;2.03;;;37.80;39.70;;;;;;6190367;28;20206;-77
2021/08/19 14:57:22;;;;;;;2.40;2.20;;;38.10;39.70;;;;;;6186798;28;20217;-78
2021/08/19 15:00:24;;;;;;;2.78;2.33;;;38.00;40.10;;;;;;6198229;28;20208;-77
2021/08/19 15:03:27;;;;;;;2.78;2.55;;;38.10;38.70;;;;;;6199249;28;20287;-77
2021/08/19 15:06:29;;;;;;;2.90;2.60;;;38.10;38.50;;;;;;6199027;28;20248;-77
2021/08/19 15:09:31;;;;;;;2.35;2.13;;;37.80;38.10;;;;;;6197827;28;20628;-78
2021/08/19 15:12:34;;;;;;;3.40;2.60;;;37.60;38.70;;;;;;6197790;28;20491;-77
2021/08/19 15:15:36;;;;;;;3.15;2.63;;;37.40;38.80;;;;;;6197608;28;20201;-77
2021/08/19 15:18:39;;;;;;;2.38;2.17;;;37.40;39.40;;;;;;6197903;28;20594;-77
2021/08/19 15:21:41;;;;;;;2.80;2.30;;;36.60;38.60;;;;;;6198955;28;20186;-77
2021/08/19 15:24:46;;;;;;;3.78;2.30;;;36.10;39.50;;;;;;6197514;28;20193;-77
2021/08/19 15:27:49;;;;;;;3.10;2.00;;;36.20;40.20;;;;;;6196857;28;20232;-77
2021/08/19 15:30:51;;;;;;;3.72;2.63;;;36.60;40.50;;;;;;6197453;28;20610;-77
2021/08/19 15:33:53;;;;;;;4.60;2.33;;;36.90;40.70;;;;;;6181381;28;20197;-77
2021/08/19 15:36:56;;;;;;;2.97;2.20;;;37.30;39.90;;;;;;6197042;28;20308;-77
2021/08/19 15:40:00;;;;;;;2.45;2.15;;;37.50;40.10;;;;;;6198385;28;20217;-76
2021/08/19 15:43:02;;;;;;;2.88;2.40;;;37.50;39.10;;;;;;6196743;28;20239;-77
2021/08/19 15:46:06;;;;;;;2.47;2.28;;;36.20;40.60;;;;;;6179980;28;20205;-77
2021/08/19 15:49:08;;;;;;;2.33;2.13;;;34.10;42.50;;;;;;6186794;28;20410;-77
2021/08/19 15:52:11;;;;;;;2.42;2.22;;;32.40;44.90;;;;;;6185942;28;20205;-77
2021/08/19 15:55:13;;;;;;;2.25;1.92;;;31.00;47.40;;;;;;6180917;28;20289;-77
2021/08/19 15:58:15;;;;;;;2.72;2.20;;;30.00;49.30;;;;;;6196290;28;20224;-76